Terminal Aerodrome Forecast
Issued by NWS Binghamton, NY

Home | Current Version | Previous Version | Text Only | Print | Product List | Glossary On
Versions: 1 2 3 4 5 6 7 8 9 10 11 12 13 14 15 16 17 18 19 20 21
000
FTUS41 KBGM 251006 AAB
TAFAVP
TAF AMD
KAVP 251006Z 2510/2606 VRB03KT P6SM OVC035 WS020/28035KT
     FM251400 VRB04KT P6SM BKN050
      TEMPO 2516/2520 4SM -RA BR BKN009
     FM252000 03004KT 5SM -RA BR OVC012=

USA.gov is the U.S. government's official web portal to all federal, state and local government web resources and services.